Etusivu
METAR-TAF:

METAR-TAF

Lentoasemat :

Gafsa, Tunisia

Leveyspiiri: 34-25N, Pituuspiiri: 008-49E, korkeus merenpinnasta: 313 m

Tämänhetkinen sää

Tämä raportti tehtiin 1 tunti ja 14 minuuttia sitten, kello 02.00 UTC
Tuuli 6 kn pohjoisesta
Lämpötila 10°C
Kosteus 53%
Ilmanpaine 1016 hPa
Näkyvyys 10 km tai enemmän
Hajanaisia pilviä 3300 ft:n korkeudessa

METAR: DTTF 110200Z 35006KT 9999 SCT033 10/01 Q1016 NOSIG

Aika: 04:14 (03:14 UTC)

Sääennuste

Tämä raportti tehtiin 3 tuntia ja 14 minuuttia sitten, kello 00.00 UTC
Ennuste voimassa 11. päivästä klo 01 UTC - 11. päivään klo 10 UTC
Tuuli 8 kn pohjoisen/luoteesta
Näkyvyys 10 km tai enemmän
Hajanaisia pilviä 2600 ft:n korkeudessa

TAF: DTTF 110000Z 1101/1110 34008KT 9999 SCT026

Säähavainnot ja -ennusteet yli 4000 lentoasemalta (METAR- ja TAF-raportit).

Käytössä olevat sääasemat on merkitty karttaan keltaisilla ja punaisilla pisteillä.

Aseta hiiri pisteen päälle nähdäksesi sääaseman nimen.

Klikkaa sitten nähdäksesi säähavainnot ja -ennusteet.

Kartan vaihtaminen: klikkaa mustalla rastilla varustettuja vihreitä pisteitä, niin voit zoomata sisään; viivalla varustettua vihreää pistettä, niin voit zoomata ulos tai vihreitä nuolia, niin pääset viereisille kartoille.


METAR-TAF: